sensor_id;sensor_type;location;lat;lon;timestamp;P1;durP1;ratioP1;P2;durP2;ratioP2
12852;SDS011;6495;51.808;7.478;2022-07-29T00:01:17;4.15;;;1.30;;
12852;SDS011;6495;51.808;7.478;2022-07-29T00:03:46;4.25;;;1.40;;
12852;SDS011;6495;51.808;7.478;2022-07-29T00:06:15;2.55;;;1.35;;
12852;SDS011;6495;51.808;7.478;2022-07-29T00:08:43;1.85;;;1.05;;
12852;SDS011;6495;51.808;7.478;2022-07-29T00:11:13;2.63;;;1.20;;
12852;SDS011;6495;51.808;7.478;2022-07-29T00:13:42;3.70;;;1.40;;
12852;SDS011;6495;51.808;7.478;2022-07-29T00:16:16;2.35;;;1.30;;
12852;SDS011;6495;51.808;7.478;2022-07-29T00:18:44;6.47;;;1.40;;
12852;SDS011;6495;51.808;7.478;2022-07-29T00:21:13;1.25;;;1.02;;
12852;SDS011;6495;51.808;7.478;2022-07-29T00:23:41;2.15;;;1.30;;
12852;SDS011;6495;51.808;7.478;2022-07-29T00:26:10;1.73;;;1.08;;
12852;SDS011;6495;51.808;7.478;2022-07-29T00:28:40;1.90;;;1.27;;
12852;SDS011;6495;51.808;7.478;2022-07-29T00:31:08;4.20;;;1.35;;
12852;SDS011;6495;51.808;7.478;2022-07-29T00:33:36;3.80;;;1.10;;
12852;SDS011;6495;51.808;7.478;2022-07-29T00:36:05;1.30;;;1.20;;
12852;SDS011;6495;51.808;7.478;2022-07-29T00:38:32;1.17;;;1.08;;
12852;SDS011;6495;51.808;7.478;2022-07-29T00:41:00;1.25;;;1.10;;
12852;SDS011;6495;51.808;7.478;2022-07-29T00:43:28;2.45;;;1.20;;
12852;SDS011;6495;51.808;7.478;2022-07-29T00:45:57;1.15;;;1.05;;
12852;SDS011;6495;51.808;7.478;2022-07-29T00:48:25;6.57;;;1.10;;
12852;SDS011;6495;51.808;7.478;2022-07-29T00:50:54;2.05;;;1.27;;
12852;SDS011;6495;51.808;7.478;2022-07-29T00:53:24;1.48;;;1.17;;
12852;SDS011;6495;51.808;7.478;2022-07-29T00:55:53;1.90;;;1.20;;
12852;SDS011;6495;51.808;7.478;2022-07-29T00:58:22;6.80;;;1.40;;
12852;SDS011;6495;51.808;7.478;2022-07-29T01:00:51;2.35;;;1.50;;
12852;SDS011;6495;51.808;7.478;2022-07-29T01:03:21;2.67;;;1.30;;
12852;SDS011;6495;51.808;7.478;2022-07-29T01:05:50;3.47;;;1.40;;
12852;SDS011;6495;51.808;7.478;2022-07-29T01:08:19;2.08;;;1.17;;
12852;SDS011;6495;51.808;7.478;2022-07-29T01:10:48;1.85;;;1.20;;
12852;SDS011;6495;51.808;7.478;2022-07-29T01:13:19;1.45;;;1.17;;
12852;SDS011;6495;51.808;7.478;2022-07-29T01:15:49;1.63;;;1.27;;
12852;SDS011;6495;51.808;7.478;2022-07-29T01:18:30;3.95;;;1.40;;
12852;SDS011;6495;51.808;7.478;2022-07-29T01:21:09;2.15;;;1.52;;
12852;SDS011;6495;51.808;7.478;2022-07-29T01:24:24;1.65;;;1.38;;
12852;SDS011;6495;51.808;7.478;2022-07-29T01:27:15;3.22;;;1.17;;
12852;SDS011;6495;51.808;7.478;2022-07-29T01:30:08;1.70;;;1.30;;
12852;SDS011;6495;51.808;7.478;2022-07-29T01:32:40;1.45;;;1.35;;
12852;SDS011;6495;51.808;7.478;2022-07-29T01:35:17;1.35;;;1.10;;
12852;SDS011;6495;51.808;7.478;2022-07-29T01:37:51;2.28;;;1.30;;
12852;SDS011;6495;51.808;7.478;2022-07-29T01:40:31;4.90;;;1.30;;
12852;SDS011;6495;51.808;7.478;2022-07-29T01:43:09;1.70;;;1.40;;
12852;SDS011;6495;51.808;7.478;2022-07-29T01:45:43;2.45;;;1.40;;
12852;SDS011;6495;51.808;7.478;2022-07-29T01:48:27;1.05;;;1.00;;
12852;SDS011;6495;51.808;7.478;2022-07-29T01:51:04;2.95;;;1.20;;
12852;SDS011;6495;51.808;7.478;2022-07-29T01:53:42;1.67;;;1.20;;
12852;SDS011;6495;51.808;7.478;2022-07-29T01:56:16;3.60;;;1.50;;
12852;SDS011;6495;51.808;7.478;2022-07-29T01:58:46;2.20;;;1.55;;
12852;SDS011;6495;51.808;7.478;2022-07-29T02:01:19;2.22;;;1.30;;
12852;SDS011;6495;51.808;7.478;2022-07-29T02:03:49;3.97;;;1.40;;
12852;SDS011;6495;51.808;7.478;2022-07-29T02:06:21;2.78;;;1.42;;
12852;SDS011;6495;51.808;7.478;2022-07-29T02:08:51;2.28;;;1.50;;
12852;SDS011;6495;51.808;7.478;2022-07-29T02:11:22;4.20;;;1.70;;
12852;SDS011;6495;51.808;7.478;2022-07-29T02:13:50;3.22;;;1.40;;
12852;SDS011;6495;51.808;7.478;2022-07-29T02:16:23;3.85;;;1.30;;
12852;SDS011;6495;51.808;7.478;2022-07-29T02:18:55;2.83;;;1.65;;
12852;SDS011;6495;51.808;7.478;2022-07-29T02:21:28;2.45;;;1.30;;
12852;SDS011;6495;51.808;7.478;2022-07-29T02:23:59;1.38;;;1.20;;
12852;SDS011;6495;51.808;7.478;2022-07-29T02:26:31;1.50;;;1.40;;
12852;SDS011;6495;51.808;7.478;2022-07-29T02:29:01;1.55;;;1.30;;
12852;SDS011;6495;51.808;7.478;2022-07-29T02:31:32;2.80;;;1.33;;
12852;SDS011;6495;51.808;7.478;2022-07-29T02:34:04;4.32;;;1.50;;
12852;SDS011;6495;51.808;7.478;2022-07-29T02:36:35;4.43;;;1.40;;
12852;SDS011;6495;51.808;7.478;2022-07-29T02:39:05;1.40;;;1.30;;
12852;SDS011;6495;51.808;7.478;2022-07-29T02:41:40;1.27;;;1.17;;
12852;SDS011;6495;51.808;7.478;2022-07-29T02:44:11;1.52;;;1.30;;
12852;SDS011;6495;51.808;7.478;2022-07-29T02:46:45;1.63;;;1.23;;
12852;SDS011;6495;51.808;7.478;2022-07-29T02:49:18;4.55;;;1.35;;
12852;SDS011;6495;51.808;7.478;2022-07-29T02:52:02;3.05;;;1.20;;
12852;SDS011;6495;51.808;7.478;2022-07-29T02:54:37;2.78;;;1.30;;
12852;SDS011;6495;51.808;7.478;2022-07-29T02:57:14;1.95;;;1.27;;
12852;SDS011;6495;51.808;7.478;2022-07-29T02:59:50;3.67;;;1.52;;
12852;SDS011;6495;51.808;7.478;2022-07-29T03:02:22;2.88;;;1.50;;
12852;SDS011;6495;51.808;7.478;2022-07-29T03:04:53;2.58;;;1.52;;
12852;SDS011;6495;51.808;7.478;2022-07-29T03:07:26;1.42;;;1.33;;
12852;SDS011;6495;51.808;7.478;2022-07-29T03:09:55;1.35;;;1.20;;
12852;SDS011;6495;51.808;7.478;2022-07-29T03:12:24;4.07;;;1.45;;
12852;SDS011;6495;51.808;7.478;2022-07-29T03:14:54;3.22;;;1.55;;
12852;SDS011;6495;51.808;7.478;2022-07-29T03:17:25;2.58;;;1.60;;
12852;SDS011;6495;51.808;7.478;2022-07-29T03:19:53;2.25;;;1.15;;
12852;SDS011;6495;51.808;7.478;2022-07-29T03:22:23;1.95;;;1.55;;
12852;SDS011;6495;51.808;7.478;2022-07-29T03:24:52;4.95;;;1.45;;
12852;SDS011;6495;51.808;7.478;2022-07-29T03:27:20;5.47;;;1.60;;
12852;SDS011;6495;51.808;7.478;2022-07-29T03:29:48;1.50;;;1.10;;
12852;SDS011;6495;51.808;7.478;2022-07-29T03:32:16;1.35;;;1.23;;
12852;SDS011;6495;51.808;7.478;2022-07-29T03:34:51;3.88;;;1.35;;
12852;SDS011;6495;51.808;7.478;2022-07-29T03:37:19;2.83;;;1.42;;
12852;SDS011;6495;51.808;7.478;2022-07-29T03:39:47;1.55;;;1.20;;
12852;SDS011;6495;51.808;7.478;2022-07-29T03:42:19;1.90;;;1.40;;
12852;SDS011;6495;51.808;7.478;2022-07-29T03:44:58;4.22;;;1.70;;
12852;SDS011;6495;51.808;7.478;2022-07-29T03:47:30;3.45;;;1.42;;
12852;SDS011;6495;51.808;7.478;2022-07-29T03:50:18;2.50;;;1.50;;
12852;SDS011;6495;51.808;7.478;2022-07-29T03:52:48;4.25;;;1.65;;
12852;SDS011;6495;51.808;7.478;2022-07-29T03:55:17;3.20;;;1.35;;
12852;SDS011;6495;51.808;7.478;2022-07-29T03:57:45;2.33;;;1.30;;
12852;SDS011;6495;51.808;7.478;2022-07-29T04:00:16;1.85;;;1.45;;
12852;SDS011;6495;51.808;7.478;2022-07-29T04:02:45;2.97;;;1.40;;
12852;SDS011;6495;51.808;7.478;2022-07-29T04:05:15;10.60;;;1.92;;
12852;SDS011;6495;51.808;7.478;2022-07-29T04:07:46;5.75;;;1.77;;
12852;SDS011;6495;51.808;7.478;2022-07-29T04:10:16;2.60;;;1.60;;
12852;SDS011;6495;51.808;7.478;2022-07-29T04:12:57;1.55;;;1.35;;
12852;SDS011;6495;51.808;7.478;2022-07-29T04:15:25;1.98;;;1.45;;
12852;SDS011;6495;51.808;7.478;2022-07-29T04:17:57;1.63;;;1.33;;
12852;SDS011;6495;51.808;7.478;2022-07-29T04:20:25;1.77;;;1.27;;
12852;SDS011;6495;51.808;7.478;2022-07-29T04:22:55;3.28;;;1.50;;
12852;SDS011;6495;51.808;7.478;2022-07-29T04:25:22;6.15;;;1.60;;
12852;SDS011;6495;51.808;7.478;2022-07-29T04:27:50;2.53;;;1.48;;
12852;SDS011;6495;51.808;7.478;2022-07-29T04:30:27;2.25;;;1.45;;
12852;SDS011;6495;51.808;7.478;2022-07-29T04:32:56;6.03;;;1.83;;
12852;SDS011;6495;51.808;7.478;2022-07-29T04:35:25;3.67;;;1.20;;
12852;SDS011;6495;51.808;7.478;2022-07-29T04:37:54;3.08;;;1.52;;
12852;SDS011;6495;51.808;7.478;2022-07-29T04:40:22;3.60;;;1.75;;
12852;SDS011;6495;51.808;7.478;2022-07-29T04:42:50;2.95;;;1.50;;
12852;SDS011;6495;51.808;7.478;2022-07-29T04:45:19;1.63;;;1.50;;
12852;SDS011;6495;51.808;7.478;2022-07-29T04:47:48;3.47;;;1.63;;
12852;SDS011;6495;51.808;7.478;2022-07-29T04:50:16;2.78;;;1.52;;
12852;SDS011;6495;51.808;7.478;2022-07-29T04:52:44;2.83;;;1.45;;
12852;SDS011;6495;51.808;7.478;2022-07-29T04:55:13;2.60;;;1.40;;
12852;SDS011;6495;51.808;7.478;2022-07-29T04:57:41;3.45;;;1.50;;
12852;SDS011;6495;51.808;7.478;2022-07-29T05:00:10;1.80;;;1.50;;
12852;SDS011;6495;51.808;7.478;2022-07-29T05:02:39;2.78;;;1.58;;
12852;SDS011;6495;51.808;7.478;2022-07-29T05:05:07;3.35;;;1.45;;
12852;SDS011;6495;51.808;7.478;2022-07-29T05:07:35;3.38;;;1.45;;
12852;SDS011;6495;51.808;7.478;2022-07-29T05:10:04;1.83;;;1.60;;
12852;SDS011;6495;51.808;7.478;2022-07-29T05:12:34;2.20;;;1.60;;
12852;SDS011;6495;51.808;7.478;2022-07-29T05:15:02;4.45;;;1.60;;
12852;SDS011;6495;51.808;7.478;2022-07-29T05:17:31;3.88;;;1.58;;
12852;SDS011;6495;51.808;7.478;2022-07-29T05:19:59;2.40;;;1.67;;
12852;SDS011;6495;51.808;7.478;2022-07-29T05:22:27;3.30;;;1.70;;
12852;SDS011;6495;51.808;7.478;2022-07-29T05:24:55;1.73;;;1.20;;
12852;SDS011;6495;51.808;7.478;2022-07-29T05:27:23;3.28;;;1.58;;
12852;SDS011;6495;51.808;7.478;2022-07-29T05:29:53;1.83;;;1.35;;
12852;SDS011;6495;51.808;7.478;2022-07-29T05:32:21;2.90;;;1.70;;
12852;SDS011;6495;51.808;7.478;2022-07-29T05:34:49;3.40;;;1.20;;
12852;SDS011;6495;51.808;7.478;2022-07-29T05:37:17;4.10;;;1.63;;
12852;SDS011;6495;51.808;7.478;2022-07-29T05:39:46;3.42;;;1.50;;
12852;SDS011;6495;51.808;7.478;2022-07-29T05:42:22;3.30;;;1.50;;
12852;SDS011;6495;51.808;7.478;2022-07-29T05:44:50;1.40;;;1.20;;
12852;SDS011;6495;51.808;7.478;2022-07-29T05:47:20;2.17;;;1.25;;
12852;SDS011;6495;51.808;7.478;2022-07-29T05:49:48;1.63;;;1.42;;
12852;SDS011;6495;51.808;7.478;2022-07-29T05:52:16;4.15;;;1.60;;
12852;SDS011;6495;51.808;7.478;2022-07-29T05:54:44;2.00;;;1.50;;
12852;SDS011;6495;51.808;7.478;2022-07-29T05:57:14;3.72;;;1.38;;
12852;SDS011;6495;51.808;7.478;2022-07-29T05:59:43;1.95;;;1.55;;
12852;SDS011;6495;51.808;7.478;2022-07-29T06:02:13;4.28;;;2.20;;
12852;SDS011;6495;51.808;7.478;2022-07-29T06:04:42;1.67;;;1.30;;
12852;SDS011;6495;51.808;7.478;2022-07-29T06:07:11;3.45;;;1.55;;
12852;SDS011;6495;51.808;7.478;2022-07-29T06:09:39;2.58;;;1.20;;
12852;SDS011;6495;51.808;7.478;2022-07-29T06:12:07;1.40;;;1.30;;
12852;SDS011;6495;51.808;7.478;2022-07-29T06:14:35;3.15;;;1.40;;
12852;SDS011;6495;51.808;7.478;2022-07-29T06:17:04;3.67;;;1.75;;
12852;SDS011;6495;51.808;7.478;2022-07-29T06:19:34;2.67;;;1.58;;
12852;SDS011;6495;51.808;7.478;2022-07-29T06:22:03;1.98;;;1.60;;
12852;SDS011;6495;51.808;7.478;2022-07-29T06:24:31;5.18;;;1.70;;
12852;SDS011;6495;51.808;7.478;2022-07-29T06:26:59;2.35;;;1.80;;
12852;SDS011;6495;51.808;7.478;2022-07-29T06:29:27;4.05;;;1.80;;
12852;SDS011;6495;51.808;7.478;2022-07-29T06:31:55;2.63;;;1.67;;
12852;SDS011;6495;51.808;7.478;2022-07-29T06:34:23;2.38;;;1.70;;
12852;SDS011;6495;51.808;7.478;2022-07-29T06:36:53;5.22;;;1.60;;
12852;SDS011;6495;51.808;7.478;2022-07-29T06:39:21;3.67;;;1.63;;
12852;SDS011;6495;51.808;7.478;2022-07-29T06:41:49;4.00;;;1.92;;
12852;SDS011;6495;51.808;7.478;2022-07-29T06:44:18;2.58;;;2.00;;
12852;SDS011;6495;51.808;7.478;2022-07-29T06:46:46;2.50;;;1.80;;
12852;SDS011;6495;51.808;7.478;2022-07-29T06:49:15;3.63;;;1.90;;
12852;SDS011;6495;51.808;7.478;2022-07-29T06:51:44;2.55;;;1.80;;
12852;SDS011;6495;51.808;7.478;2022-07-29T06:54:13;3.30;;;2.05;;
12852;SDS011;6495;51.808;7.478;2022-07-29T06:56:42;2.38;;;1.73;;
12852;SDS011;6495;51.808;7.478;2022-07-29T06:59:11;4.03;;;1.80;;
12852;SDS011;6495;51.808;7.478;2022-07-29T07:01:40;2.30;;;1.70;;
12852;SDS011;6495;51.808;7.478;2022-07-29T07:04:09;2.75;;;1.67;;
12852;SDS011;6495;51.808;7.478;2022-07-29T07:06:40;3.65;;;1.70;;
12852;SDS011;6495;51.808;7.478;2022-07-29T07:09:08;3.05;;;1.63;;
12852;SDS011;6495;51.808;7.478;2022-07-29T07:11:37;7.07;;;1.88;;
12852;SDS011;6495;51.808;7.478;2022-07-29T07:14:05;2.20;;;1.60;;
12852;SDS011;6495;51.808;7.478;2022-07-29T07:16:33;3.40;;;1.40;;
12852;SDS011;6495;51.808;7.478;2022-07-29T07:19:01;3.50;;;1.60;;
12852;SDS011;6495;51.808;7.478;2022-07-29T07:21:29;2.58;;;1.80;;
12852;SDS011;6495;51.808;7.478;2022-07-29T07:23:57;4.15;;;1.90;;
12852;SDS011;6495;51.808;7.478;2022-07-29T07:26:27;2.92;;;1.50;;
12852;SDS011;6495;51.808;7.478;2022-07-29T07:28:56;4.28;;;1.90;;
12852;SDS011;6495;51.808;7.478;2022-07-29T07:31:26;6.18;;;1.83;;
12852;SDS011;6495;51.808;7.478;2022-07-29T07:33:54;2.53;;;1.55;;
12852;SDS011;6495;51.808;7.478;2022-07-29T07:36:22;2.00;;;1.77;;
12852;SDS011;6495;51.808;7.478;2022-07-29T07:38:50;3.67;;;2.00;;
12852;SDS011;6495;51.808;7.478;2022-07-29T07:41:18;2.78;;;1.70;;
12852;SDS011;6495;51.808;7.478;2022-07-29T07:43:47;5.25;;;1.58;;
12852;SDS011;6495;51.808;7.478;2022-07-29T07:46:16;3.60;;;1.98;;
12852;SDS011;6495;51.808;7.478;2022-07-29T07:48:44;3.40;;;1.77;;
12852;SDS011;6495;51.808;7.478;2022-07-29T07:51:12;4.43;;;1.83;;
12852;SDS011;6495;51.808;7.478;2022-07-29T07:53:40;1.80;;;1.70;;
12852;SDS011;6495;51.808;7.478;2022-07-29T07:56:10;1.98;;;1.80;;
12852;SDS011;6495;51.808;7.478;2022-07-29T07:58:39;5.95;;;1.80;;
12852;SDS011;6495;51.808;7.478;2022-07-29T08:01:07;2.33;;;1.58;;
12852;SDS011;6495;51.808;7.478;2022-07-29T08:03:36;2.30;;;1.80;;
12852;SDS011;6495;51.808;7.478;2022-07-29T08:06:05;5.82;;;2.10;;
12852;SDS011;6495;51.808;7.478;2022-07-29T08:08:33;5.75;;;1.70;;
12852;SDS011;6495;51.808;7.478;2022-07-29T08:11:01;1.88;;;1.70;;
12852;SDS011;6495;51.808;7.478;2022-07-29T08:13:35;1.92;;;1.60;;
12852;SDS011;6495;51.808;7.478;2022-07-29T08:16:04;2.85;;;1.83;;
12852;SDS011;6495;51.808;7.478;2022-07-29T08:18:43;4.00;;;1.67;;
12852;SDS011;6495;51.808;7.478;2022-07-29T08:21:13;3.25;;;1.90;;
12852;SDS011;6495;51.808;7.478;2022-07-29T08:23:43;3.45;;;1.88;;
12852;SDS011;6495;51.808;7.478;2022-07-29T08:26:27;5.10;;;1.88;;
12852;SDS011;6495;51.808;7.478;2022-07-29T08:28:54;6.25;;;1.92;;
12852;SDS011;6495;51.808;7.478;2022-07-29T08:31:22;2.00;;;1.80;;
12852;SDS011;6495;51.808;7.478;2022-07-29T08:33:52;2.70;;;2.10;;
12852;SDS011;6495;51.808;7.478;2022-07-29T08:36:22;3.35;;;1.80;;
12852;SDS011;6495;51.808;7.478;2022-07-29T08:38:50;3.45;;;1.88;;
12852;SDS011;6495;51.808;7.478;2022-07-29T08:41:18;4.93;;;2.22;;
12852;SDS011;6495;51.808;7.478;2022-07-29T08:43:46;1.65;;;1.45;;
12852;SDS011;6495;51.808;7.478;2022-07-29T08:46:15;4.53;;;1.88;;
12852;SDS011;6495;51.808;7.478;2022-07-29T08:48:44;2.65;;;1.60;;
12852;SDS011;6495;51.808;7.478;2022-07-29T08:51:14;3.30;;;1.77;;
12852;SDS011;6495;51.808;7.478;2022-07-29T08:53:45;2.22;;;2.00;;
12852;SDS011;6495;51.808;7.478;2022-07-29T08:56:16;3.22;;;1.85;;
12852;SDS011;6495;51.808;7.478;2022-07-29T08:58:46;2.72;;;2.03;;
12852;SDS011;6495;51.808;7.478;2022-07-29T09:01:20;6.00;;;2.25;;
12852;SDS011;6495;51.808;7.478;2022-07-29T09:04:03;3.72;;;1.90;;
12852;SDS011;6495;51.808;7.478;2022-07-29T09:06:37;4.43;;;2.00;;
12852;SDS011;6495;51.808;7.478;2022-07-29T09:09:10;10.60;;;3.25;;
12852;SDS011;6495;51.808;7.478;2022-07-29T09:11:40;3.10;;;1.88;;
12852;SDS011;6495;51.808;7.478;2022-07-29T09:14:08;6.28;;;1.80;;
12852;SDS011;6495;51.808;7.478;2022-07-29T09:16:47;3.78;;;2.08;;
12852;SDS011;6495;51.808;7.478;2022-07-29T09:19:27;3.22;;;1.75;;
12852;SDS011;6495;51.808;7.478;2022-07-29T09:21:59;4.75;;;1.73;;
12852;SDS011;6495;51.808;7.478;2022-07-29T09:24:42;4.82;;;1.88;;
12852;SDS011;6495;51.808;7.478;2022-07-29T09:27:19;3.28;;;1.70;;
12852;SDS011;6495;51.808;7.478;2022-07-29T09:29:55;5.45;;;2.35;;
12852;SDS011;6495;51.808;7.478;2022-07-29T09:32:25;6.15;;;2.00;;
12852;SDS011;6495;51.808;7.478;2022-07-29T09:37:43;3.05;;;2.00;;
12852;SDS011;6495;51.808;7.478;2022-07-29T09:40:13;4.40;;;2.30;;
12852;SDS011;6495;51.808;7.478;2022-07-29T09:42:43;4.15;;;2.15;;
12852;SDS011;6495;51.808;7.478;2022-07-29T09:45:13;3.63;;;2.38;;
12852;SDS011;6495;51.808;7.478;2022-07-29T09:47:56;4.20;;;2.45;;
12852;SDS011;6495;51.808;7.478;2022-07-29T09:50:36;5.75;;;2.45;;
12852;SDS011;6495;51.808;7.478;2022-07-29T09:53:07;5.88;;;2.40;;
12852;SDS011;6495;51.808;7.478;2022-07-29T09:55:46;3.50;;;2.28;;
12852;SDS011;6495;51.808;7.478;2022-07-29T09:58:17;5.32;;;2.50;;
12852;SDS011;6495;51.808;7.478;2022-07-29T10:00:47;3.08;;;2.20;;
12852;SDS011;6495;51.808;7.478;2022-07-29T10:03:16;4.40;;;2.40;;
12852;SDS011;6495;51.808;7.478;2022-07-29T10:05:45;4.15;;;2.05;;
12852;SDS011;6495;51.808;7.478;2022-07-29T10:08:33;6.22;;;2.63;;
12852;SDS011;6495;51.808;7.478;2022-07-29T10:11:11;2.65;;;1.75;;
12852;SDS011;6495;51.808;7.478;2022-07-29T10:13:41;5.22;;;2.17;;
12852;SDS011;6495;51.808;7.478;2022-07-29T10:16:13;2.45;;;2.13;;
12852;SDS011;6495;51.808;7.478;2022-07-29T10:18:44;2.45;;;2.25;;
12852;SDS011;6495;51.808;7.478;2022-07-29T10:21:13;3.47;;;2.53;;
12852;SDS011;6495;51.808;7.478;2022-07-29T10:24:02;3.78;;;2.30;;
12852;SDS011;6495;51.808;7.478;2022-07-29T10:26:40;4.53;;;2.22;;
12852;SDS011;6495;51.808;7.478;2022-07-29T10:29:09;3.78;;;2.63;;
12852;SDS011;6495;51.808;7.478;2022-07-29T10:31:39;9.77;;;2.80;;
12852;SDS011;6495;51.808;7.478;2022-07-29T10:34:20;4.10;;;2.65;;
12852;SDS011;6495;51.808;7.478;2022-07-29T10:37:07;3.75;;;2.35;;
12852;SDS011;6495;51.808;7.478;2022-07-29T10:39:52;5.28;;;2.50;;
12852;SDS011;6495;51.808;7.478;2022-07-29T10:42:50;2.88;;;2.33;;
12852;SDS011;6495;51.808;7.478;2022-07-29T10:45:21;3.25;;;2.42;;
12852;SDS011;6495;51.808;7.478;2022-07-29T10:47:53;5.20;;;2.78;;
12852;SDS011;6495;51.808;7.478;2022-07-29T10:53:20;4.50;;;2.78;;
12852;SDS011;6495;51.808;7.478;2022-07-29T10:55:51;6.47;;;2.53;;
12852;SDS011;6495;51.808;7.478;2022-07-29T10:58:20;4.03;;;2.35;;
12852;SDS011;6495;51.808;7.478;2022-07-29T11:00:51;6.72;;;2.78;;
12852;SDS011;6495;51.808;7.478;2022-07-29T11:06:16;3.95;;;2.40;;
12852;SDS011;6495;51.808;7.478;2022-07-29T11:12:01;5.50;;;2.40;;
12852;SDS011;6495;51.808;7.478;2022-07-29T11:17:25;4.47;;;2.60;;
12852;SDS011;6495;51.808;7.478;2022-07-29T11:26:15;8.23;;;2.92;;
12852;SDS011;6495;51.808;7.478;2022-07-29T11:28:52;5.03;;;2.63;;
12852;SDS011;6495;51.808;7.478;2022-07-29T11:31:35;5.75;;;3.17;;
12852;SDS011;6495;51.808;7.478;2022-07-29T11:34:21;7.55;;;3.00;;
12852;SDS011;6495;51.808;7.478;2022-07-29T11:37:17;4.55;;;2.67;;
12852;SDS011;6495;51.808;7.478;2022-07-29T11:42:44;6.13;;;3.38;;
12852;SDS011;6495;51.808;7.478;2022-07-29T11:45:31;5.55;;;3.25;;
12852;SDS011;6495;51.808;7.478;2022-07-29T11:48:16;4.40;;;3.05;;
12852;SDS011;6495;51.808;7.478;2022-07-29T11:50:57;4.50;;;3.10;;
12852;SDS011;6495;51.808;7.478;2022-07-29T11:53:26;7.07;;;3.05;;
12852;SDS011;6495;51.808;7.478;2022-07-29T11:55:58;5.57;;;2.90;;
12852;SDS011;6495;51.808;7.478;2022-07-29T11:58:28;6.00;;;3.03;;
12852;SDS011;6495;51.808;7.478;2022-07-29T12:00:58;6.35;;;3.03;;
12852;SDS011;6495;51.808;7.478;2022-07-29T12:03:30;6.03;;;3.45;;
12852;SDS011;6495;51.808;7.478;2022-07-29T12:06:02;4.43;;;3.38;;
12852;SDS011;6495;51.808;7.478;2022-07-29T12:08:40;5.88;;;3.28;;
12852;SDS011;6495;51.808;7.478;2022-07-29T12:11:16;3.95;;;3.45;;
12852;SDS011;6495;51.808;7.478;2022-07-29T12:13:48;6.63;;;3.35;;
12852;SDS011;6495;51.808;7.478;2022-07-29T12:16:18;4.63;;;3.47;;
12852;SDS011;6495;51.808;7.478;2022-07-29T12:18:55;5.30;;;3.42;;
12852;SDS011;6495;51.808;7.478;2022-07-29T12:21:24;9.98;;;3.35;;
12852;SDS011;6495;51.808;7.478;2022-07-29T12:23:55;5.15;;;3.15;;
12852;SDS011;6495;51.808;7.478;2022-07-29T12:26:34;5.03;;;3.28;;
12852;SDS011;6495;51.808;7.478;2022-07-29T12:29:05;6.50;;;3.42;;
12852;SDS011;6495;51.808;7.478;2022-07-29T12:31:42;6.72;;;3.40;;
12852;SDS011;6495;51.808;7.478;2022-07-29T12:34:11;3.88;;;3.05;;
12852;SDS011;6495;51.808;7.478;2022-07-29T12:36:42;5.68;;;3.20;;
12852;SDS011;6495;51.808;7.478;2022-07-29T12:39:11;5.05;;;3.00;;
12852;SDS011;6495;51.808;7.478;2022-07-29T12:41:39;6.00;;;3.45;;
12852;SDS011;6495;51.808;7.478;2022-07-29T12:44:07;5.85;;;3.60;;
12852;SDS011;6495;51.808;7.478;2022-07-29T12:46:35;9.40;;;3.60;;
12852;SDS011;6495;51.808;7.478;2022-07-29T12:49:06;4.43;;;3.10;;
12852;SDS011;6495;51.808;7.478;2022-07-29T12:51:35;4.38;;;3.05;;
12852;SDS011;6495;51.808;7.478;2022-07-29T12:54:06;4.40;;;3.10;;
12852;SDS011;6495;51.808;7.478;2022-07-29T12:56:36;8.95;;;3.50;;
12852;SDS011;6495;51.808;7.478;2022-07-29T12:59:12;5.85;;;3.22;;
12852;SDS011;6495;51.808;7.478;2022-07-29T13:01:42;3.20;;;2.90;;
12852;SDS011;6495;51.808;7.478;2022-07-29T13:04:23;7.43;;;3.30;;
12852;SDS011;6495;51.808;7.478;2022-07-29T13:06:58;4.93;;;3.22;;
12852;SDS011;6495;51.808;7.478;2022-07-29T13:09:39;4.88;;;3.30;;
12852;SDS011;6495;51.808;7.478;2022-07-29T13:12:09;5.22;;;2.90;;
12852;SDS011;6495;51.808;7.478;2022-07-29T13:14:39;7.32;;;3.35;;
12852;SDS011;6495;51.808;7.478;2022-07-29T13:17:11;5.80;;;3.50;;
12852;SDS011;6495;51.808;7.478;2022-07-29T13:19:43;8.55;;;3.50;;
12852;SDS011;6495;51.808;7.478;2022-07-29T13:22:14;6.28;;;2.88;;
12852;SDS011;6495;51.808;7.478;2022-07-29T13:24:49;5.45;;;2.65;;
12852;SDS011;6495;51.808;7.478;2022-07-29T13:27:21;4.55;;;2.60;;
12852;SDS011;6495;51.808;7.478;2022-07-29T13:29:52;3.92;;;2.60;;
12852;SDS011;6495;51.808;7.478;2022-07-29T13:32:22;4.22;;;2.55;;
12852;SDS011;6495;51.808;7.478;2022-07-29T13:34:55;4.82;;;3.05;;
12852;SDS011;6495;51.808;7.478;2022-07-29T13:37:24;7.45;;;3.05;;
12852;SDS011;6495;51.808;7.478;2022-07-29T13:39:55;6.88;;;3.78;;
12852;SDS011;6495;51.808;7.478;2022-07-29T13:42:25;8.35;;;3.38;;
12852;SDS011;6495;51.808;7.478;2022-07-29T13:44:53;3.17;;;2.65;;
12852;SDS011;6495;51.808;7.478;2022-07-29T13:47:22;3.58;;;2.60;;
12852;SDS011;6495;51.808;7.478;2022-07-29T13:49:59;6.45;;;2.95;;
12852;SDS011;6495;51.808;7.478;2022-07-29T13:52:28;6.82;;;2.78;;
12852;SDS011;6495;51.808;7.478;2022-07-29T13:54:56;4.57;;;2.88;;
12852;SDS011;6495;51.808;7.478;2022-07-29T13:57:25;6.47;;;3.00;;
12852;SDS011;6495;51.808;7.478;2022-07-29T13:59:53;6.88;;;2.80;;
12852;SDS011;6495;51.808;7.478;2022-07-29T14:02:22;5.60;;;2.67;;
12852;SDS011;6495;51.808;7.478;2022-07-29T14:04:51;5.80;;;2.63;;
12852;SDS011;6495;51.808;7.478;2022-07-29T14:07:22;7.38;;;2.75;;
12852;SDS011;6495;51.808;7.478;2022-07-29T14:09:50;7.03;;;2.58;;
12852;SDS011;6495;51.808;7.478;2022-07-29T14:12:18;6.22;;;2.88;;
12852;SDS011;6495;51.808;7.478;2022-07-29T14:14:47;4.93;;;2.38;;
12852;SDS011;6495;51.808;7.478;2022-07-29T14:17:15;6.50;;;2.80;;
12852;SDS011;6495;51.808;7.478;2022-07-29T14:19:44;6.65;;;2.75;;
12852;SDS011;6495;51.808;7.478;2022-07-29T14:22:12;5.38;;;2.38;;
12852;SDS011;6495;51.808;7.478;2022-07-29T14:24:43;3.13;;;2.50;;
12852;SDS011;6495;51.808;7.478;2022-07-29T14:27:11;7.90;;;2.70;;
12852;SDS011;6495;51.808;7.478;2022-07-29T14:29:39;11.88;;;2.97;;
12852;SDS011;6495;51.808;7.478;2022-07-29T14:32:08;4.18;;;2.65;;
12852;SDS011;6495;51.808;7.478;2022-07-29T14:34:37;3.92;;;2.33;;
12852;SDS011;6495;51.808;7.478;2022-07-29T14:37:06;6.65;;;2.70;;
12852;SDS011;6495;51.808;7.478;2022-07-29T14:39:42;5.90;;;2.88;;
12852;SDS011;6495;51.808;7.478;2022-07-29T14:42:11;7.60;;;5.15;;
12852;SDS011;6495;51.808;7.478;2022-07-29T14:44:39;12.85;;;11.55;;
12852;SDS011;6495;51.808;7.478;2022-07-29T14:47:09;8.15;;;5.28;;
12852;SDS011;6495;51.808;7.478;2022-07-29T14:49:37;2.70;;;2.33;;
12852;SDS011;6495;51.808;7.478;2022-07-29T14:52:06;3.10;;;2.80;;
12852;SDS011;6495;51.808;7.478;2022-07-29T14:54:35;4.78;;;2.38;;
12852;SDS011;6495;51.808;7.478;2022-07-29T14:57:05;5.88;;;2.63;;
12852;SDS011;6495;51.808;7.478;2022-07-29T14:59:33;5.15;;;1.95;;
12852;SDS011;6495;51.808;7.478;2022-07-29T15:02:01;7.68;;;2.80;;
12852;SDS011;6495;51.808;7.478;2022-07-29T15:04:30;6.35;;;2.90;;
12852;SDS011;6495;51.808;7.478;2022-07-29T15:06:58;5.15;;;3.10;;
12852;SDS011;6495;51.808;7.478;2022-07-29T15:09:26;4.90;;;2.97;;
12852;SDS011;6495;51.808;7.478;2022-07-29T15:11:54;5.40;;;2.55;;
12852;SDS011;6495;51.808;7.478;2022-07-29T15:14:24;4.10;;;2.50;;
12852;SDS011;6495;51.808;7.478;2022-07-29T15:16:52;10.02;;;3.20;;
12852;SDS011;6495;51.808;7.478;2022-07-29T15:19:21;4.13;;;2.55;;
12852;SDS011;6495;51.808;7.478;2022-07-29T15:21:49;7.85;;;2.78;;
12852;SDS011;6495;51.808;7.478;2022-07-29T15:24:19;4.05;;;2.78;;
12852;SDS011;6495;51.808;7.478;2022-07-29T15:26:48;4.25;;;2.83;;
12852;SDS011;6495;51.808;7.478;2022-07-29T15:29:16;4.47;;;2.70;;
12852;SDS011;6495;51.808;7.478;2022-07-29T15:31:45;6.20;;;2.67;;
12852;SDS011;6495;51.808;7.478;2022-07-29T15:34:14;5.93;;;2.80;;
12852;SDS011;6495;51.808;7.478;2022-07-29T15:36:43;4.93;;;2.58;;
12852;SDS011;6495;51.808;7.478;2022-07-29T15:39:19;4.10;;;2.50;;
12852;SDS011;6495;51.808;7.478;2022-07-29T15:41:49;3.40;;;2.53;;
12852;SDS011;6495;51.808;7.478;2022-07-29T15:44:35;4.03;;;2.78;;
12852;SDS011;6495;51.808;7.478;2022-07-29T15:47:04;6.45;;;3.03;;
12852;SDS011;6495;51.808;7.478;2022-07-29T15:49:34;5.32;;;2.80;;